Mc Kinnon, Wyoming
Current Conditions -  °F | °C
As of 7:55 AM on Monday 22 Dec 2014 (Local Time) from KFBR Reporting Station
Light Snow Light Snow  
Wind Chill: 20°   Ceiling: 1400
Heat Index: 31°   Visibility: 7mi
Dew Point: 30°   Wind: 16mph
Humidity: 96%   Direction: 280°W
Pressure: 29.91"   Gusts: 23mph
Location:  41.275°N, 109.786°W
Report Text: KFBR 221455Z AUTO 28014G20KT 7SM -SN BKN014 OVC020 00/M01 A2991 RMK AO2 T10051010
Loading
Personal Weather Stations






























Interactive Weather Map New forecast layout! Learn more

10-Day Weather Forecast

Advertisements
Track Severe Weather on mobile